Wednesday, March 20, 2019, 3:32 AM GMT
Back to Local

CWIT, Saint Clothilde Automated Reporting Station

Location: , , Canada Lat: 45.167
Local Time: 3:32 AM GMT ( 3:32 GMT) Lon: -73.683
Time Zone: GMT Elev: 170 ft

Show me the last for .
Show Decoded

2019-03-20 03:00 METAR CWIT 200300Z AUTO 13001KT M05/M11 RMK AO1 SOG 14 8004 SLP273 T10511114 =
2019-03-20 02:00 METAR CWIT 200200Z AUTO 18002KT M03/M12 RMK AO1 SOG 14 7003 SLP275 T10331119 =
2019-03-20 01:00 METAR CWIT 200100Z AUTO 16002KT M04/M11 RMK AO1 SOG 14 8002 SLP276 T10381109 =
2019-03-20 00:00 METAR CWIT 200000Z AUTO 00000KT M03/M10 RMK AO1 SOG 14 8001 SLP277 T10251104 =
2019-03-19 23:00 METAR CWIT 192300Z AUTO 00000KT M01/M11 RMK AO1 SOG 14 6004 SLP278 T10121107 =
2019-03-19 22:00 METAR CWIT 192200Z AUTO 28005KT 01/M13 RMK AO1 SOG 14 6009 SLP278 T00101133 =
2019-03-19 21:00 METAR CWIT 192100Z AUTO 31004KT 01/M14 RMK AO1 SOG 14 6015 SLP278 T00061135 =
2019-03-19 20:00 METAR CWIT 192000Z AUTO 32006KT M00/M16 RMK AO1 SOG 14 8015 SLP282 T10031156 =
2019-03-19 19:00 METAR CWIT 191900Z AUTO 28006KT M00/M16 RMK AO1 SOG 14 8011 SLP287 T10011155 =
2019-03-19 18:00 METAR CWIT 191800Z AUTO 27007KT M01/M16 RMK AO1 SOG 14 8004 SLP293 T10071162 =
2019-03-19 17:00 METAR CWIT 191700Z AUTO 32007KT M02/M18 RMK AO1 SOG 14 0003 SLP297 T10201179 =
2019-03-19 16:00 METAR CWIT 191600Z AUTO 28005KT M02/M16 RMK AO1 SOG 14 1008 SLP298 T10231155 =
2019-03-19 15:00 METAR CWIT 191500Z AUTO 29002KT M03/M16 RMK AO1 SOG 14 3009 SLP297 T10311163 =
2019-03-19 14:00 METAR CWIT 191400Z AUTO 23001KT M03/M15 RMK AO1 SOG 14 1013 SLP294 T10341151 =
2019-03-19 13:00 METAR CWIT 191300Z AUTO 28002KT M06/M14 RMK AO1 SOG 14 1016 SLP290 T10551139 =
2019-03-19 12:00 METAR CWIT 191200Z AUTO 00000KT M10/M13 RMK AO1 SOG 14 3019 SLP288 T11041128 =
2019-03-19 11:00 METAR CWIT 191100Z AUTO 00000KT M13/M15 RMK AO1 SOG 14 3015 SLP281 T11311147 =
2019-03-19 10:00 METAR CWIT 191000Z AUTO 00000KT M12/M14 RMK AO1 SOG 14 3007 SLP274 T11241141 =
2019-03-19 09:00 METAR CWIT 190900Z AUTO 00000KT M12/M13 RMK AO1 SOG 14 2005 SLP269 T11161131 =
2019-03-19 08:00 METAR CWIT 190800Z AUTO 00000KT M11/M12 RMK AO1 SOG 14 0006 SLP266 T11081115 =
2019-03-19 07:00 METAR CWIT 190700Z AUTO 00000KT M10/M12 RMK AO1 SOG 14 2010 SLP267 T10981121 =
2019-03-19 06:00 METAR CWIT 190600Z AUTO 30001KT M08/M12 RMK AO1 SOG 14 3008 SLP264 T10811115 =
2019-03-19 05:00 METAR CWIT 190500Z AUTO 30001KT M07/M11 RMK AO1 SOG 14 2007 SLP260 T10711109 =
2019-03-19 04:00 METAR CWIT 190400Z AUTO 31001KT M06/M10 RMK AO1 SOG 14 1008 SLP257 T10611095 =

Support USWX by starting your Amazon purchase here.